sensor_id;sensor_type;location;lat;lon;timestamp;P1;durP1;ratioP1;P2;durP2;ratioP2
13347;SDS011;6743;49.934;9.138;2024-01-11T00:01:08;2.20;;;1.97;;
13347;SDS011;6743;49.934;9.138;2024-01-11T00:03:34;6.63;;;3.33;;
13347;SDS011;6743;49.934;9.138;2024-01-11T00:06:00;2.87;;;2.70;;
13347;SDS011;6743;49.934;9.138;2024-01-11T00:08:26;2.93;;;1.60;;
13347;SDS011;6743;49.934;9.138;2024-01-11T00:10:52;2.43;;;1.43;;
13347;SDS011;6743;49.934;9.138;2024-01-11T00:13:18;2.23;;;2.07;;
13347;SDS011;6743;49.934;9.138;2024-01-11T00:15:45;1.87;;;1.77;;
13347;SDS011;6743;49.934;9.138;2024-01-11T00:18:11;2.83;;;2.30;;
13347;SDS011;6743;49.934;9.138;2024-01-11T00:20:37;4.23;;;3.37;;
13347;SDS011;6743;49.934;9.138;2024-01-11T00:23:03;6.67;;;4.40;;
13347;SDS011;6743;49.934;9.138;2024-01-11T00:25:29;4.57;;;3.53;;
13347;SDS011;6743;49.934;9.138;2024-01-11T00:27:55;3.37;;;3.07;;
13347;SDS011;6743;49.934;9.138;2024-01-11T00:30:21;6.77;;;2.80;;
13347;SDS011;6743;49.934;9.138;2024-01-11T00:32:49;3.87;;;2.73;;
13347;SDS011;6743;49.934;9.138;2024-01-11T00:35:15;6.13;;;4.73;;
13347;SDS011;6743;49.934;9.138;2024-01-11T00:37:40;7.73;;;3.93;;
13347;SDS011;6743;49.934;9.138;2024-01-11T00:40:07;3.07;;;2.53;;
13347;SDS011;6743;49.934;9.138;2024-01-11T00:42:33;3.43;;;3.27;;
13347;SDS011;6743;49.934;9.138;2024-01-11T00:45:00;6.57;;;4.57;;
13347;SDS011;6743;49.934;9.138;2024-01-11T00:47:26;3.73;;;3.47;;
13347;SDS011;6743;49.934;9.138;2024-01-11T00:49:53;5.13;;;4.63;;
13347;SDS011;6743;49.934;9.138;2024-01-11T00:52:19;7.27;;;4.50;;
13347;SDS011;6743;49.934;9.138;2024-01-11T00:54:45;2.73;;;2.50;;
13347;SDS011;6743;49.934;9.138;2024-01-11T00:57:11;5.63;;;3.70;;
13347;SDS011;6743;49.934;9.138;2024-01-11T00:59:37;3.17;;;2.33;;
13347;SDS011;6743;49.934;9.138;2024-01-11T01:02:03;2.83;;;2.67;;
13347;SDS011;6743;49.934;9.138;2024-01-11T01:04:29;2.13;;;2.03;;
13347;SDS011;6743;49.934;9.138;2024-01-11T01:06:55;3.33;;;3.10;;
13347;SDS011;6743;49.934;9.138;2024-01-11T01:09:21;2.00;;;1.90;;
13347;SDS011;6743;49.934;9.138;2024-01-11T01:11:48;3.03;;;2.83;;
13347;SDS011;6743;49.934;9.138;2024-01-11T01:14:14;5.33;;;2.97;;
13347;SDS011;6743;49.934;9.138;2024-01-11T01:16:40;2.80;;;2.53;;
13347;SDS011;6743;49.934;9.138;2024-01-11T01:19:06;5.23;;;3.97;;
13347;SDS011;6743;49.934;9.138;2024-01-11T01:21:31;4.57;;;4.17;;
13347;SDS011;6743;49.934;9.138;2024-01-11T01:23:58;3.57;;;2.60;;
13347;SDS011;6743;49.934;9.138;2024-01-11T01:26:24;2.37;;;2.27;;
13347;SDS011;6743;49.934;9.138;2024-01-11T01:28:50;4.30;;;3.50;;
13347;SDS011;6743;49.934;9.138;2024-01-11T01:31:16;2.43;;;1.97;;
13347;SDS011;6743;49.934;9.138;2024-01-11T01:33:42;3.00;;;2.80;;
13347;SDS011;6743;49.934;9.138;2024-01-11T01:36:09;4.37;;;3.67;;
13347;SDS011;6743;49.934;9.138;2024-01-11T01:38:35;2.53;;;2.10;;
13347;SDS011;6743;49.934;9.138;2024-01-11T01:41:02;4.83;;;2.70;;
13347;SDS011;6743;49.934;9.138;2024-01-11T01:43:28;3.10;;;2.57;;
13347;SDS011;6743;49.934;9.138;2024-01-11T01:45:54;2.93;;;1.70;;
13347;SDS011;6743;49.934;9.138;2024-01-11T01:48:21;2.80;;;2.67;;
13347;SDS011;6743;49.934;9.138;2024-01-11T01:50:47;4.20;;;2.70;;
13347;SDS011;6743;49.934;9.138;2024-01-11T01:53:16;3.60;;;3.30;;
13347;SDS011;6743;49.934;9.138;2024-01-11T01:55:42;8.33;;;4.90;;
13347;SDS011;6743;49.934;9.138;2024-01-11T01:58:09;4.07;;;3.77;;
13347;SDS011;6743;49.934;9.138;2024-01-11T02:00:35;3.80;;;2.57;;
13347;SDS011;6743;49.934;9.138;2024-01-11T02:03:02;3.37;;;3.07;;
13347;SDS011;6743;49.934;9.138;2024-01-11T02:05:29;3.30;;;3.13;;
13347;SDS011;6743;49.934;9.138;2024-01-11T02:07:56;2.40;;;2.20;;
13347;SDS011;6743;49.934;9.138;2024-01-11T02:10:24;3.80;;;3.40;;
13347;SDS011;6743;49.934;9.138;2024-01-11T02:12:50;4.63;;;3.67;;
13347;SDS011;6743;49.934;9.138;2024-01-11T02:15:17;2.80;;;2.60;;
13347;SDS011;6743;49.934;9.138;2024-01-11T02:17:43;3.97;;;3.33;;
13347;SDS011;6743;49.934;9.138;2024-01-11T02:20:09;4.53;;;3.77;;
13347;SDS011;6743;49.934;9.138;2024-01-11T02:22:38;3.23;;;3.03;;
13347;SDS011;6743;49.934;9.138;2024-01-11T02:25:06;1.93;;;1.87;;
13347;SDS011;6743;49.934;9.138;2024-01-11T02:27:44;5.90;;;2.70;;
13347;SDS011;6743;49.934;9.138;2024-01-11T02:30:11;2.17;;;2.00;;
13347;SDS011;6743;49.934;9.138;2024-01-11T02:32:37;2.43;;;2.33;;
13347;SDS011;6743;49.934;9.138;2024-01-11T02:35:04;3.30;;;2.60;;
13347;SDS011;6743;49.934;9.138;2024-01-11T02:37:30;3.23;;;3.03;;
13347;SDS011;6743;49.934;9.138;2024-01-11T02:39:56;6.40;;;2.30;;
13347;SDS011;6743;49.934;9.138;2024-01-11T02:42:23;3.80;;;3.13;;
13347;SDS011;6743;49.934;9.138;2024-01-11T02:44:49;3.37;;;3.13;;
13347;SDS011;6743;49.934;9.138;2024-01-11T02:47:15;5.17;;;2.63;;
13347;SDS011;6743;49.934;9.138;2024-01-11T02:49:41;2.63;;;2.23;;
13347;SDS011;6743;49.934;9.138;2024-01-11T02:52:07;4.07;;;3.10;;
13347;SDS011;6743;49.934;9.138;2024-01-11T02:54:33;3.07;;;2.57;;
13347;SDS011;6743;49.934;9.138;2024-01-11T02:56:59;3.13;;;2.57;;
13347;SDS011;6743;49.934;9.138;2024-01-11T02:59:25;2.73;;;2.63;;
13347;SDS011;6743;49.934;9.138;2024-01-11T03:01:51;16.13;;;2.53;;
13347;SDS011;6743;49.934;9.138;2024-01-11T03:04:17;2.43;;;2.23;;
13347;SDS011;6743;49.934;9.138;2024-01-11T03:06:43;2.30;;;2.20;;
13347;SDS011;6743;49.934;9.138;2024-01-11T03:09:09;2.30;;;2.10;;
13347;SDS011;6743;49.934;9.138;2024-01-11T03:11:35;2.83;;;2.63;;
13347;SDS011;6743;49.934;9.138;2024-01-11T03:14:02;8.87;;;2.27;;
13347;SDS011;6743;49.934;9.138;2024-01-11T03:16:29;1.70;;;1.60;;
13347;SDS011;6743;49.934;9.138;2024-01-11T03:18:55;4.30;;;2.77;;
13347;SDS011;6743;49.934;9.138;2024-01-11T03:21:22;5.13;;;4.57;;
13347;SDS011;6743;49.934;9.138;2024-01-11T03:23:47;4.13;;;2.40;;
13347;SDS011;6743;49.934;9.138;2024-01-11T03:26:13;2.43;;;2.03;;
13347;SDS011;6743;49.934;9.138;2024-01-11T03:28:40;1.97;;;1.87;;
13347;SDS011;6743;49.934;9.138;2024-01-11T03:31:06;2.00;;;1.90;;
13347;SDS011;6743;49.934;9.138;2024-01-11T03:33:33;5.43;;;2.37;;
13347;SDS011;6743;49.934;9.138;2024-01-11T03:35:59;6.20;;;3.67;;
13347;SDS011;6743;49.934;9.138;2024-01-11T03:38:25;2.40;;;2.30;;
13347;SDS011;6743;49.934;9.138;2024-01-11T03:40:51;2.57;;;2.37;;
13347;SDS011;6743;49.934;9.138;2024-01-11T03:43:17;8.67;;;2.77;;
13347;SDS011;6743;49.934;9.138;2024-01-11T03:45:43;3.27;;;2.73;;
13347;SDS011;6743;49.934;9.138;2024-01-11T03:48:09;1.63;;;1.63;;
13347;SDS011;6743;49.934;9.138;2024-01-11T03:50:36;2.60;;;2.27;;
13347;SDS011;6743;49.934;9.138;2024-01-11T03:53:02;3.43;;;2.70;;
13347;SDS011;6743;49.934;9.138;2024-01-11T03:55:29;2.50;;;2.30;;
13347;SDS011;6743;49.934;9.138;2024-01-11T03:57:55;3.03;;;2.83;;
13347;SDS011;6743;49.934;9.138;2024-01-11T04:00:21;3.00;;;2.77;;
13347;SDS011;6743;49.934;9.138;2024-01-11T04:02:47;3.30;;;2.20;;
13347;SDS011;6743;49.934;9.138;2024-01-11T04:05:13;5.77;;;3.20;;
13347;SDS011;6743;49.934;9.138;2024-01-11T04:07:41;1.40;;;1.37;;
13347;SDS011;6743;49.934;9.138;2024-01-11T04:10:08;3.93;;;2.70;;
13347;SDS011;6743;49.934;9.138;2024-01-11T04:12:35;2.00;;;1.97;;
13347;SDS011;6743;49.934;9.138;2024-01-11T04:15:01;3.63;;;3.37;;
13347;SDS011;6743;49.934;9.138;2024-01-11T04:17:27;2.27;;;2.10;;
13347;SDS011;6743;49.934;9.138;2024-01-11T04:19:53;1.30;;;1.20;;
13347;SDS011;6743;49.934;9.138;2024-01-11T04:22:19;4.90;;;2.23;;
13347;SDS011;6743;49.934;9.138;2024-01-11T04:24:46;2.53;;;2.33;;
13347;SDS011;6743;49.934;9.138;2024-01-11T04:27:12;2.87;;;2.27;;
13347;SDS011;6743;49.934;9.138;2024-01-11T04:29:38;1.93;;;1.83;;
13347;SDS011;6743;49.934;9.138;2024-01-11T04:32:04;3.00;;;2.80;;
13347;SDS011;6743;49.934;9.138;2024-01-11T04:34:30;1.87;;;1.77;;
13347;SDS011;6743;49.934;9.138;2024-01-11T04:36:56;2.13;;;2.03;;
13347;SDS011;6743;49.934;9.138;2024-01-11T04:39:22;3.50;;;3.27;;
13347;SDS011;6743;49.934;9.138;2024-01-11T04:41:49;2.87;;;2.77;;
13347;SDS011;6743;49.934;9.138;2024-01-11T04:44:15;5.63;;;2.10;;
13347;SDS011;6743;49.934;9.138;2024-01-11T04:46:41;1.77;;;1.60;;
13347;SDS011;6743;49.934;9.138;2024-01-11T04:49:07;3.30;;;3.07;;
13347;SDS011;6743;49.934;9.138;2024-01-11T04:51:33;2.50;;;2.33;;
13347;SDS011;6743;49.934;9.138;2024-01-11T04:53:59;3.07;;;2.93;;
13347;SDS011;6743;49.934;9.138;2024-01-11T04:56:25;1.87;;;1.77;;
13347;SDS011;6743;49.934;9.138;2024-01-11T04:58:52;2.30;;;2.10;;
13347;SDS011;6743;49.934;9.138;2024-01-11T05:01:18;2.80;;;2.50;;
13347;SDS011;6743;49.934;9.138;2024-01-11T05:03:44;1.37;;;1.37;;
13347;SDS011;6743;49.934;9.138;2024-01-11T05:06:14;2.87;;;2.67;;
13347;SDS011;6743;49.934;9.138;2024-01-11T05:08:41;5.70;;;1.67;;
13347;SDS011;6743;49.934;9.138;2024-01-11T05:11:07;3.47;;;3.17;;
13347;SDS011;6743;49.934;9.138;2024-01-11T05:13:33;2.70;;;2.53;;
13347;SDS011;6743;49.934;9.138;2024-01-11T05:15:59;5.63;;;2.43;;
13347;SDS011;6743;49.934;9.138;2024-01-11T05:18:25;3.03;;;2.77;;
13347;SDS011;6743;49.934;9.138;2024-01-11T05:20:51;2.37;;;2.17;;
13347;SDS011;6743;49.934;9.138;2024-01-11T05:23:17;2.57;;;2.37;;
13347;SDS011;6743;49.934;9.138;2024-01-11T05:25:43;2.40;;;2.20;;
13347;SDS011;6743;49.934;9.138;2024-01-11T05:28:09;4.77;;;1.43;;
13347;SDS011;6743;49.934;9.138;2024-01-11T05:30:35;3.17;;;2.83;;
13347;SDS011;6743;49.934;9.138;2024-01-11T05:33:02;3.07;;;2.00;;
13347;SDS011;6743;49.934;9.138;2024-01-11T05:35:29;4.03;;;2.17;;
13347;SDS011;6743;49.934;9.138;2024-01-11T05:37:55;2.93;;;2.73;;
13347;SDS011;6743;49.934;9.138;2024-01-11T05:40:21;2.33;;;2.23;;
13347;SDS011;6743;49.934;9.138;2024-01-11T05:42:47;2.13;;;2.00;;
13347;SDS011;6743;49.934;9.138;2024-01-11T05:45:14;2.63;;;2.43;;
13347;SDS011;6743;49.934;9.138;2024-01-11T05:47:42;2.23;;;2.13;;
13347;SDS011;6743;49.934;9.138;2024-01-11T05:50:09;3.30;;;2.47;;
13347;SDS011;6743;49.934;9.138;2024-01-11T05:52:35;4.90;;;2.97;;
13347;SDS011;6743;49.934;9.138;2024-01-11T05:55:01;1.23;;;1.23;;
13347;SDS011;6743;49.934;9.138;2024-01-11T05:57:27;4.10;;;3.70;;
13347;SDS011;6743;49.934;9.138;2024-01-11T05:59:53;1.63;;;1.57;;
13347;SDS011;6743;49.934;9.138;2024-01-11T06:02:19;4.53;;;2.80;;
13347;SDS011;6743;49.934;9.138;2024-01-11T06:04:47;3.47;;;3.17;;
13347;SDS011;6743;49.934;9.138;2024-01-11T06:07:15;3.30;;;2.40;;
13347;SDS011;6743;49.934;9.138;2024-01-11T06:09:41;2.43;;;2.33;;
13347;SDS011;6743;49.934;9.138;2024-01-11T06:12:07;1.57;;;1.47;;
13347;SDS011;6743;49.934;9.138;2024-01-11T06:14:34;2.00;;;1.90;;
13347;SDS011;6743;49.934;9.138;2024-01-11T06:17:00;2.23;;;2.03;;
13347;SDS011;6743;49.934;9.138;2024-01-11T06:19:26;3.03;;;2.57;;
13347;SDS011;6743;49.934;9.138;2024-01-11T06:21:52;4.93;;;3.73;;
13347;SDS011;6743;49.934;9.138;2024-01-11T06:24:18;2.80;;;2.60;;
13347;SDS011;6743;49.934;9.138;2024-01-11T06:26:44;2.10;;;2.00;;
13347;SDS011;6743;49.934;9.138;2024-01-11T06:29:10;4.27;;;3.87;;
13347;SDS011;6743;49.934;9.138;2024-01-11T06:31:36;2.23;;;2.20;;
13347;SDS011;6743;49.934;9.138;2024-01-11T06:34:02;3.10;;;2.37;;
13347;SDS011;6743;49.934;9.138;2024-01-11T06:36:29;2.40;;;2.23;;
13347;SDS011;6743;49.934;9.138;2024-01-11T06:38:55;3.53;;;3.33;;
13347;SDS011;6743;49.934;9.138;2024-01-11T06:41:22;3.30;;;2.07;;
13347;SDS011;6743;49.934;9.138;2024-01-11T06:43:47;1.70;;;1.70;;
13347;SDS011;6743;49.934;9.138;2024-01-11T06:46:18;2.17;;;2.07;;
13347;SDS011;6743;49.934;9.138;2024-01-11T06:48:45;2.43;;;2.30;;
13347;SDS011;6743;49.934;9.138;2024-01-11T06:51:13;3.47;;;3.17;;
13347;SDS011;6743;49.934;9.138;2024-01-11T06:53:40;1.97;;;1.87;;
13347;SDS011;6743;49.934;9.138;2024-01-11T06:56:12;2.13;;;2.03;;
13347;SDS011;6743;49.934;9.138;2024-01-11T06:58:40;3.50;;;2.43;;
13347;SDS011;6743;49.934;9.138;2024-01-11T07:01:06;2.10;;;1.67;;
13347;SDS011;6743;49.934;9.138;2024-01-11T07:03:32;1.67;;;1.57;;
13347;SDS011;6743;49.934;9.138;2024-01-11T07:05:58;3.67;;;3.37;;
13347;SDS011;6743;49.934;9.138;2024-01-11T07:08:24;3.70;;;3.07;;
13347;SDS011;6743;49.934;9.138;2024-01-11T07:10:50;4.33;;;3.50;;
13347;SDS011;6743;49.934;9.138;2024-01-11T07:13:16;6.50;;;4.00;;
13347;SDS011;6743;49.934;9.138;2024-01-11T07:15:43;2.00;;;1.90;;
13347;SDS011;6743;49.934;9.138;2024-01-11T07:18:09;4.20;;;3.80;;
13347;SDS011;6743;49.934;9.138;2024-01-11T07:20:35;2.57;;;2.37;;
13347;SDS011;6743;49.934;9.138;2024-01-11T07:23:01;3.37;;;3.07;;
13347;SDS011;6743;49.934;9.138;2024-01-11T07:25:27;2.43;;;1.90;;
13347;SDS011;6743;49.934;9.138;2024-01-11T07:27:53;2.60;;;2.40;;
13347;SDS011;6743;49.934;9.138;2024-01-11T07:30:19;3.43;;;3.23;;
13347;SDS011;6743;49.934;9.138;2024-01-11T07:32:46;1.73;;;1.67;;
13347;SDS011;6743;49.934;9.138;2024-01-11T07:35:13;2.03;;;1.97;;
13347;SDS011;6743;49.934;9.138;2024-01-11T07:37:39;3.87;;;2.90;;
13347;SDS011;6743;49.934;9.138;2024-01-11T07:40:06;3.03;;;2.63;;
13347;SDS011;6743;49.934;9.138;2024-01-11T07:42:35;1.37;;;1.37;;
13347;SDS011;6743;49.934;9.138;2024-01-11T07:45:03;1.80;;;1.27;;
13347;SDS011;6743;49.934;9.138;2024-01-11T07:47:30;2.30;;;2.03;;
13347;SDS011;6743;49.934;9.138;2024-01-11T07:49:57;1.00;;;1.00;;
13347;SDS011;6743;49.934;9.138;2024-01-11T07:52:22;2.40;;;2.30;;
13347;SDS011;6743;49.934;9.138;2024-01-11T07:54:48;2.43;;;1.43;;
13347;SDS011;6743;49.934;9.138;2024-01-11T07:57:14;1.30;;;1.30;;
13347;SDS011;6743;49.934;9.138;2024-01-11T07:59:41;2.93;;;2.17;;
13347;SDS011;6743;49.934;9.138;2024-01-11T08:02:06;2.40;;;2.30;;
13347;SDS011;6743;49.934;9.138;2024-01-11T08:04:32;2.10;;;2.00;;
13347;SDS011;6743;49.934;9.138;2024-01-11T08:06:59;3.43;;;3.20;;
13347;SDS011;6743;49.934;9.138;2024-01-11T08:09:25;7.40;;;4.27;;
13347;SDS011;6743;49.934;9.138;2024-01-11T08:11:51;2.57;;;2.37;;
13347;SDS011;6743;49.934;9.138;2024-01-11T08:14:19;3.37;;;3.17;;
13347;SDS011;6743;49.934;9.138;2024-01-11T08:16:45;1.93;;;1.83;;
13347;SDS011;6743;49.934;9.138;2024-01-11T08:19:11;12.70;;;3.73;;
13347;SDS011;6743;49.934;9.138;2024-01-11T08:21:38;2.57;;;2.47;;
13347;SDS011;6743;49.934;9.138;2024-01-11T08:24:05;2.23;;;2.10;;
13347;SDS011;6743;49.934;9.138;2024-01-11T08:26:32;2.77;;;2.67;;
13347;SDS011;6743;49.934;9.138;2024-01-11T08:28:58;1.47;;;1.43;;
13347;SDS011;6743;49.934;9.138;2024-01-11T08:31:24;4.27;;;3.87;;
13347;SDS011;6743;49.934;9.138;2024-01-11T08:33:50;2.67;;;2.57;;
13347;SDS011;6743;49.934;9.138;2024-01-11T08:36:16;3.63;;;3.30;;
13347;SDS011;6743;49.934;9.138;2024-01-11T08:38:42;2.17;;;2.07;;
13347;SDS011;6743;49.934;9.138;2024-01-11T08:41:09;7.90;;;2.93;;
13347;SDS011;6743;49.934;9.138;2024-01-11T08:43:34;3.83;;;2.93;;
13347;SDS011;6743;49.934;9.138;2024-01-11T08:46:00;1.90;;;1.80;;
13347;SDS011;6743;49.934;9.138;2024-01-11T08:48:27;1.67;;;1.63;;
13347;SDS011;6743;49.934;9.138;2024-01-11T08:50:53;2.47;;;2.27;;
13347;SDS011;6743;49.934;9.138;2024-01-11T08:53:19;2.37;;;2.27;;
13347;SDS011;6743;49.934;9.138;2024-01-11T08:55:46;2.13;;;2.03;;
13347;SDS011;6743;49.934;9.138;2024-01-11T08:58:13;2.17;;;2.07;;
13347;SDS011;6743;49.934;9.138;2024-01-11T09:00:39;2.27;;;2.17;;
13347;SDS011;6743;49.934;9.138;2024-01-11T09:03:05;1.60;;;1.50;;
13347;SDS011;6743;49.934;9.138;2024-01-11T09:05:31;1.83;;;1.73;;
13347;SDS011;6743;49.934;9.138;2024-01-11T09:07:57;3.77;;;3.23;;
13347;SDS011;6743;49.934;9.138;2024-01-11T09:10:23;6.60;;;2.33;;
13347;SDS011;6743;49.934;9.138;2024-01-11T09:12:50;8.67;;;3.03;;
13347;SDS011;6743;49.934;9.138;2024-01-11T09:15:17;3.50;;;3.20;;
13347;SDS011;6743;49.934;9.138;2024-01-11T09:17:43;5.00;;;2.33;;
13347;SDS011;6743;49.934;9.138;2024-01-11T09:20:10;2.10;;;2.00;;
13347;SDS011;6743;49.934;9.138;2024-01-11T09:22:39;1.33;;;1.33;;
13347;SDS011;6743;49.934;9.138;2024-01-11T09:25:05;2.17;;;2.07;;
13347;SDS011;6743;49.934;9.138;2024-01-11T09:27:33;2.50;;;2.30;;
13347;SDS011;6743;49.934;9.138;2024-01-11T09:29:59;1.57;;;1.57;;
13347;SDS011;6743;49.934;9.138;2024-01-11T09:32:25;6.67;;;3.27;;
13347;SDS011;6743;49.934;9.138;2024-01-11T09:34:51;1.77;;;1.63;;
13347;SDS011;6743;49.934;9.138;2024-01-11T09:37:17;2.97;;;2.27;;
13347;SDS011;6743;49.934;9.138;2024-01-11T09:39:43;2.83;;;2.63;;
13347;SDS011;6743;49.934;9.138;2024-01-11T09:42:09;6.23;;;2.40;;
13347;SDS011;6743;49.934;9.138;2024-01-11T09:44:35;2.93;;;2.63;;
13347;SDS011;6743;49.934;9.138;2024-01-11T09:47:02;3.20;;;2.97;;
13347;SDS011;6743;49.934;9.138;2024-01-11T09:49:32;3.17;;;2.57;;
13347;SDS011;6743;49.934;9.138;2024-01-11T09:52:01;3.53;;;2.90;;
13347;SDS011;6743;49.934;9.138;2024-01-11T09:54:27;6.73;;;4.30;;
13347;SDS011;6743;49.934;9.138;2024-01-11T09:56:54;3.07;;;2.87;;
13347;SDS011;6743;49.934;9.138;2024-01-11T09:59:22;3.07;;;2.87;;
13347;SDS011;6743;49.934;9.138;2024-01-11T10:01:50;3.07;;;2.57;;
13347;SDS011;6743;49.934;9.138;2024-01-11T10:04:16;2.60;;;2.53;;
13347;SDS011;6743;49.934;9.138;2024-01-11T10:06:43;2.97;;;2.43;;
13347;SDS011;6743;49.934;9.138;2024-01-11T10:09:10;8.67;;;3.87;;
13347;SDS011;6743;49.934;9.138;2024-01-11T10:11:38;4.73;;;1.93;;
13347;SDS011;6743;49.934;9.138;2024-01-11T10:14:04;2.93;;;2.77;;
13347;SDS011;6743;49.934;9.138;2024-01-11T10:16:30;2.60;;;2.40;;
13347;SDS011;6743;49.934;9.138;2024-01-11T10:18:56;2.93;;;2.73;;
13347;SDS011;6743;49.934;9.138;2024-01-11T10:21:23;4.33;;;3.93;;
13347;SDS011;6743;49.934;9.138;2024-01-11T10:23:50;2.53;;;2.40;;
13347;SDS011;6743;49.934;9.138;2024-01-11T10:26:16;3.67;;;3.13;;
13347;SDS011;6743;49.934;9.138;2024-01-11T10:28:44;3.30;;;3.00;;
13347;SDS011;6743;49.934;9.138;2024-01-11T10:31:10;4.87;;;3.23;;
13347;SDS011;6743;49.934;9.138;2024-01-11T10:33:36;5.27;;;4.30;;
13347;SDS011;6743;49.934;9.138;2024-01-11T10:36:03;6.60;;;3.80;;
13347;SDS011;6743;49.934;9.138;2024-01-11T10:38:29;2.43;;;2.23;;
13347;SDS011;6743;49.934;9.138;2024-01-11T10:40:57;2.63;;;2.33;;
13347;SDS011;6743;49.934;9.138;2024-01-11T10:43:26;6.70;;;5.70;;
13347;SDS011;6743;49.934;9.138;2024-01-11T10:45:53;3.20;;;3.00;;
13347;SDS011;6743;49.934;9.138;2024-01-11T10:48:23;5.57;;;3.30;;
13347;SDS011;6743;49.934;9.138;2024-01-11T10:50:54;1.97;;;1.87;;
13347;SDS011;6743;49.934;9.138;2024-01-11T10:53:25;3.90;;;3.53;;
13347;SDS011;6743;49.934;9.138;2024-01-11T10:55:55;3.47;;;2.57;;
13347;SDS011;6743;49.934;9.138;2024-01-11T10:58:24;5.07;;;3.73;;
13347;SDS011;6743;49.934;9.138;2024-01-11T11:00:52;3.03;;;2.87;;
13347;SDS011;6743;49.934;9.138;2024-01-11T11:03:20;2.10;;;1.97;;
13347;SDS011;6743;49.934;9.138;2024-01-11T11:05:48;3.13;;;2.93;;
13347;SDS011;6743;49.934;9.138;2024-01-11T11:08:15;3.03;;;2.53;;
13347;SDS011;6743;49.934;9.138;2024-01-11T11:10:43;8.67;;;4.00;;
13347;SDS011;6743;49.934;9.138;2024-01-11T11:13:13;6.37;;;3.87;;
13347;SDS011;6743;49.934;9.138;2024-01-11T11:15:40;3.43;;;3.13;;
13347;SDS011;6743;49.934;9.138;2024-01-11T11:18:07;3.50;;;3.23;;
13347;SDS011;6743;49.934;9.138;2024-01-11T11:20:35;3.10;;;2.90;;
13347;SDS011;6743;49.934;9.138;2024-01-11T11:23:04;9.33;;;3.67;;
13347;SDS011;6743;49.934;9.138;2024-01-11T11:25:30;6.73;;;3.93;;
13347;SDS011;6743;49.934;9.138;2024-01-11T11:27:57;10.40;;;4.13;;
13347;SDS011;6743;49.934;9.138;2024-01-11T11:30:24;6.63;;;3.90;;
13347;SDS011;6743;49.934;9.138;2024-01-11T11:32:50;6.50;;;4.87;;
13347;SDS011;6743;49.934;9.138;2024-01-11T11:35:16;4.30;;;3.27;;
13347;SDS011;6743;49.934;9.138;2024-01-11T11:37:42;6.10;;;3.47;;
13347;SDS011;6743;49.934;9.138;2024-01-11T11:40:09;6.13;;;4.90;;
13347;SDS011;6743;49.934;9.138;2024-01-11T11:42:36;6.00;;;5.37;;
13347;SDS011;6743;49.934;9.138;2024-01-11T11:45:02;2.43;;;2.20;;
13347;SDS011;6743;49.934;9.138;2024-01-11T11:47:34;5.23;;;4.73;;
13347;SDS011;6743;49.934;9.138;2024-01-11T11:50:04;3.87;;;3.03;;
13347;SDS011;6743;49.934;9.138;2024-01-11T11:52:32;5.00;;;4.53;;
13347;SDS011;6743;49.934;9.138;2024-01-11T11:55:00;6.23;;;3.70;;
13347;SDS011;6743;49.934;9.138;2024-01-11T11:57:27;5.73;;;3.30;;
13347;SDS011;6743;49.934;9.138;2024-01-11T11:59:53;4.87;;;4.53;;
13347;SDS011;6743;49.934;9.138;2024-01-11T12:02:21;5.43;;;5.03;;
13347;SDS011;6743;49.934;9.138;2024-01-11T12:04:50;4.17;;;3.87;;
13347;SDS011;6743;49.934;9.138;2024-01-11T12:07:16;9.43;;;5.57;;
13347;SDS011;6743;49.934;9.138;2024-01-11T12:09:43;7.73;;;4.53;;
13347;SDS011;6743;49.934;9.138;2024-01-11T12:12:09;4.67;;;4.27;;
13347;SDS011;6743;49.934;9.138;2024-01-11T12:14:35;6.30;;;4.93;;
13347;SDS011;6743;49.934;9.138;2024-01-11T12:17:01;7.50;;;6.27;;
13347;SDS011;6743;49.934;9.138;2024-01-11T12:19:27;7.47;;;4.87;;
13347;SDS011;6743;49.934;9.138;2024-01-11T12:21:54;5.37;;;4.50;;
13347;SDS011;6743;49.934;9.138;2024-01-11T12:24:20;4.13;;;3.80;;
13347;SDS011;6743;49.934;9.138;2024-01-11T12:26:48;8.40;;;5.93;;
13347;SDS011;6743;49.934;9.138;2024-01-11T12:29:15;3.47;;;3.23;;
13347;SDS011;6743;49.934;9.138;2024-01-11T12:31:42;8.13;;;5.70;;
13347;SDS011;6743;49.934;9.138;2024-01-11T12:34:08;13.77;;;6.53;;
13347;SDS011;6743;49.934;9.138;2024-01-11T12:36:36;4.60;;;4.17;;
13347;SDS011;6743;49.934;9.138;2024-01-11T12:39:03;5.53;;;4.60;;
13347;SDS011;6743;49.934;9.138;2024-01-11T12:41:31;6.57;;;5.23;;
13347;SDS011;6743;49.934;9.138;2024-01-11T12:43:58;12.57;;;4.90;;
13347;SDS011;6743;49.934;9.138;2024-01-11T12:46:24;9.63;;;4.17;;
13347;SDS011;6743;49.934;9.138;2024-01-11T12:48:50;11.37;;;5.77;;
13347;SDS011;6743;49.934;9.138;2024-01-11T12:51:17;3.60;;;3.23;;
13347;SDS011;6743;49.934;9.138;2024-01-11T12:53:44;9.00;;;6.23;;
13347;SDS011;6743;49.934;9.138;2024-01-11T12:56:12;5.77;;;3.83;;
13347;SDS011;6743;49.934;9.138;2024-01-11T12:58:40;5.57;;;4.63;;
13347;SDS011;6743;49.934;9.138;2024-01-11T13:01:06;7.07;;;5.00;;
13347;SDS011;6743;49.934;9.138;2024-01-11T13:03:33;5.83;;;4.40;;
13347;SDS011;6743;49.934;9.138;2024-01-11T13:05:59;10.87;;;5.83;;
13347;SDS011;6743;49.934;9.138;2024-01-11T13:08:25;6.47;;;5.13;;
13347;SDS011;6743;49.934;9.138;2024-01-11T13:10:52;11.53;;;5.13;;
13347;SDS011;6743;49.934;9.138;2024-01-11T13:13:19;5.47;;;3.60;;
13347;SDS011;6743;49.934;9.138;2024-01-11T13:15:45;6.97;;;4.90;;
13347;SDS011;6743;49.934;9.138;2024-01-11T13:18:11;6.07;;;5.57;;
13347;SDS011;6743;49.934;9.138;2024-01-11T13:20:37;10.63;;;5.37;;
13347;SDS011;6743;49.934;9.138;2024-01-11T13:23:13;12.47;;;7.07;;
13347;SDS011;6743;49.934;9.138;2024-01-11T13:25:39;9.83;;;6.00;;
13347;SDS011;6743;49.934;9.138;2024-01-11T13:28:06;10.80;;;5.83;;
13347;SDS011;6743;49.934;9.138;2024-01-11T13:30:32;13.97;;;6.93;;
13347;SDS011;6743;49.934;9.138;2024-01-11T13:32:58;9.67;;;6.10;;
13347;SDS011;6743;49.934;9.138;2024-01-11T13:35:25;10.10;;;4.80;;
13347;SDS011;6743;49.934;9.138;2024-01-11T13:37:50;6.93;;;4.40;;
13347;SDS011;6743;49.934;9.138;2024-01-11T13:40:16;9.70;;;4.43;;
13347;SDS011;6743;49.934;9.138;2024-01-11T13:42:42;4.33;;;3.93;;
13347;SDS011;6743;49.934;9.138;2024-01-11T13:45:08;4.40;;;3.13;;
13347;SDS011;6743;49.934;9.138;2024-01-11T13:47:35;10.43;;;4.43;;
13347;SDS011;6743;49.934;9.138;2024-01-11T13:50:01;6.07;;;5.33;;
13347;SDS011;6743;49.934;9.138;2024-01-11T13:52:28;8.30;;;6.87;;
13347;SDS011;6743;49.934;9.138;2024-01-11T13:54:54;3.90;;;3.57;;
13347;SDS011;6743;49.934;9.138;2024-01-11T13:57:20;5.77;;;5.03;;
13347;SDS011;6743;49.934;9.138;2024-01-11T13:59:47;6.20;;;5.17;;
13347;SDS011;6743;49.934;9.138;2024-01-11T14:02:13;5.33;;;4.80;;
13347;SDS011;6743;49.934;9.138;2024-01-11T14:04:39;8.17;;;5.73;;
13347;SDS011;6743;49.934;9.138;2024-01-11T14:07:05;6.67;;;4.07;;
13347;SDS011;6743;49.934;9.138;2024-01-11T14:09:31;6.90;;;3.93;;
13347;SDS011;6743;49.934;9.138;2024-01-11T14:11:57;7.07;;;3.70;;
13347;SDS011;6743;49.934;9.138;2024-01-11T14:14:23;6.97;;;4.50;;
13347;SDS011;6743;49.934;9.138;2024-01-11T14:16:49;9.87;;;5.90;;
13347;SDS011;6743;49.934;9.138;2024-01-11T14:19:16;7.63;;;4.37;;
13347;SDS011;6743;49.934;9.138;2024-01-11T14:21:43;7.90;;;4.70;;
13347;SDS011;6743;49.934;9.138;2024-01-11T14:24:09;7.03;;;3.70;;
13347;SDS011;6743;49.934;9.138;2024-01-11T14:26:35;9.50;;;6.37;;
13347;SDS011;6743;49.934;9.138;2024-01-11T14:29:01;9.80;;;5.77;;
13347;SDS011;6743;49.934;9.138;2024-01-11T14:31:27;8.10;;;5.87;;
13347;SDS011;6743;49.934;9.138;2024-01-11T14:33:54;16.13;;;7.40;;
13347;SDS011;6743;49.934;9.138;2024-01-11T14:36:20;9.80;;;5.43;;
13347;SDS011;6743;49.934;9.138;2024-01-11T14:38:46;19.40;;;4.00;;
13347;SDS011;6743;49.934;9.138;2024-01-11T14:41:13;6.33;;;3.67;;
13347;SDS011;6743;49.934;9.138;2024-01-11T14:43:39;7.13;;;3.87;;
13347;SDS011;6743;49.934;9.138;2024-01-11T14:46:05;6.97;;;4.00;;
13347;SDS011;6743;49.934;9.138;2024-01-11T14:48:35;7.20;;;5.00;;
13347;SDS011;6743;49.934;9.138;2024-01-11T14:51:01;9.23;;;7.57;;
13347;SDS011;6743;49.934;9.138;2024-01-11T14:53:27;6.83;;;4.57;;
13347;SDS011;6743;49.934;9.138;2024-01-11T14:55:54;10.47;;;5.50;;